createdAt,value
2023-05-18T00:03:48.448Z,9.23
2023-05-18T00:13:51.170Z,9.27
2023-05-18T00:23:55.746Z,9.34
2023-05-18T00:33:58.730Z,9.36
2023-05-18T00:44:04.543Z,9.44
2023-05-18T00:54:07.842Z,9.41
2023-05-18T01:04:14.372Z,9.38
2023-05-18T01:14:21.177Z,9.44
2023-05-18T01:24:36.514Z,9.40
2023-05-18T01:34:40.541Z,9.44
2023-05-18T01:44:48.844Z,9.47
2023-05-18T01:54:55.851Z,9.53
2023-05-18T02:04:58.456Z,9.53
2023-05-18T02:15:05.501Z,9.63
2023-05-18T02:25:08.724Z,9.56
2023-05-18T02:35:12.865Z,9.56
2023-05-18T02:45:15.555Z,9.48
2023-05-18T02:55:19.909Z,9.44
2023-05-18T03:05:23.729Z,9.49
2023-05-18T03:15:31.468Z,9.50
2023-05-18T03:25:37.155Z,9.53
2023-05-18T03:35:41.692Z,9.42
2023-05-18T03:45:44.356Z,9.40
2023-05-18T03:55:50.179Z,9.45
2023-05-18T04:05:53.309Z,9.46
2023-05-18T04:15:58.397Z,9.56
2023-05-18T04:26:01.347Z,9.64
2023-05-18T04:36:06.374Z,9.80
2023-05-18T04:46:09.056Z,9.94
2023-05-18T04:56:13.787Z,10.16
2023-05-18T05:06:16.805Z,10.38
2023-05-18T05:16:20.801Z,10.60
2023-05-18T05:26:23.544Z,10.87
2023-05-18T05:36:27.680Z,11.13
2023-05-18T05:46:30.443Z,11.30
2023-05-18T05:56:34.484Z,11.44
2023-05-18T06:06:37.993Z,11.61
2023-05-18T06:16:41.994Z,11.98
2023-05-18T06:26:45.125Z,11.98
2023-05-18T06:36:49.110Z,12.32
2023-05-18T06:46:51.821Z,12.49
2023-05-18T06:56:55.839Z,12.50
2023-05-18T07:06:58.766Z,12.60
2023-05-18T07:17:03.928Z,12.74
2023-05-18T07:27:06.963Z,12.97
2023-05-18T07:37:10.960Z,13.03
2023-05-18T07:47:13.736Z,13.04
2023-05-18T07:57:17.776Z,13.21
2023-05-18T08:07:21.472Z,13.34
2023-05-18T08:17:26.037Z,13.51
2023-05-18T08:27:29.587Z,14.24
2023-05-18T08:37:33.782Z,14.65
2023-05-18T08:47:38.442Z,15.31
2023-05-18T08:57:44.439Z,15.86
2023-05-18T09:07:48.145Z,16.36
2023-05-18T09:17:52.218Z,16.11
2023-05-18T09:27:55.766Z,15.80
2023-05-18T09:38:04.565Z,16.33
2023-05-18T09:48:08.528Z,16.34
2023-05-18T09:58:12.656Z,16.59
2023-05-18T10:08:15.919Z,16.28
2023-05-18T10:18:23.841Z,16.57
2023-05-18T10:28:28.722Z,16.80
2023-05-18T10:38:34.086Z,16.96
2023-05-18T10:48:47.497Z,16.87
2023-05-18T10:58:52.473Z,17.15
2023-05-18T11:08:55.195Z,17.84
2023-05-18T11:19:06.911Z,19.10
2023-05-18T11:29:18.349Z,23.17
2023-05-18T11:39:25.980Z,24.61
2023-05-18T11:49:30.443Z,28.06
2023-05-18T11:59:37.698Z,27.64
2023-05-18T12:09:44.839Z,28.18
2023-05-18T12:19:50.185Z,21.17
2023-05-18T12:29:52.934Z,26.38
2023-05-18T12:39:57.157Z,30.65
2023-05-18T12:50:03.341Z,31.66
2023-05-18T13:00:10.589Z,30.39
2023-05-18T13:10:16.391Z,27.99
2023-05-18T13:20:20.578Z,27.47
2023-05-18T13:30:24.163Z,26.97
2023-05-18T13:40:28.438Z,26.57
2023-05-18T13:50:31.291Z,26.55
2023-05-18T14:00:36.485Z,27.01
2023-05-18T14:10:39.279Z,25.34
2023-05-18T14:20:43.444Z,23.36
2023-05-18T14:30:46.157Z,22.99
2023-05-18T14:40:50.389Z,22.62
2023-05-18T14:50:53.069Z,22.08
2023-05-18T15:00:57.162Z,22.04
2023-05-18T15:11:00.310Z,22.03
2023-05-18T15:21:04.454Z,22.49
2023-05-18T15:31:07.147Z,23.22
2023-05-18T15:41:11.161Z,23.28
2023-05-18T15:51:14.190Z,22.52
2023-05-18T16:01:18.378Z,21.89
2023-05-18T16:21:40.115Z,20.92
2023-05-18T16:31:43.019Z,20.66
2023-05-18T16:41:47.221Z,20.61
2023-05-18T16:51:50.070Z,20.33
2023-05-18T17:01:54.249Z,20.20
2023-05-18T17:11:56.909Z,20.18
2023-05-18T17:22:00.946Z,19.36
2023-05-18T17:32:03.748Z,19.07
2023-05-18T17:42:08.010Z,18.95
2023-05-18T17:52:11.130Z,18.85
2023-05-18T18:02:15.340Z,18.20
2023-05-18T18:12:18.071Z,17.46
2023-05-18T18:22:22.302Z,16.39
2023-05-18T18:32:24.933Z,15.72
2023-05-18T18:42:29.082Z,15.14
2023-05-18T18:52:31.966Z,14.67
2023-05-18T19:02:37.499Z,14.24
2023-05-18T19:12:40.402Z,13.88
2023-05-18T19:22:44.389Z,13.53
2023-05-18T19:32:47.123Z,13.19
2023-05-18T19:42:51.157Z,13.06
2023-05-18T19:52:54.001Z,12.78
2023-05-18T20:02:58.076Z,12.55
2023-05-18T20:13:01.424Z,12.41
2023-05-18T20:23:06.716Z,12.20
2023-05-18T20:33:09.997Z,12.05
2023-05-18T20:43:17.991Z,11.85
2023-05-18T20:53:21.372Z,11.70
2023-05-18T21:03:25.541Z,11.45
2023-05-18T21:13:28.502Z,11.31
2023-05-18T21:23:32.633Z,11.07
2023-05-18T21:33:35.315Z,10.81
2023-05-18T21:43:39.448Z,10.67
2023-05-18T21:53:42.146Z,10.65
2023-05-18T22:03:46.299Z,10.58
2023-05-18T22:13:49.079Z,10.56
2023-05-18T22:23:53.416Z,10.48
2023-05-18T22:33:56.332Z,10.44
2023-05-18T22:44:00.837Z,10.14
2023-05-18T22:54:03.514Z,10.01
2023-05-18T23:04:07.742Z,9.99
2023-05-18T23:14:11.201Z,9.96
2023-05-18T23:24:16.070Z,9.97
2023-05-18T23:34:19.354Z,9.82
2023-05-18T23:44:24.130Z,9.70
2023-05-18T23:54:27.392Z,9.64
